MLZ weather

Melgoza Airport
Mexicali, Baja California, Mexico

Public forecast

Using degrees Celsius for public forecast. Weather courtesy of forecast.io.

METAR (pilot weather report)

Closest report is General Rodolfo Sánchez Taboada International Airport, 22.7 nm (42.0 km) N. Retrieved 2019/08/18 18:03 UTC (3 minutes ago):

MMML 181803Z RTD 10003KT 10SM FEW200 37/04 A2981 RMK SLP095 52010 910 8/002

TAF (pilot weather forecast)

Closest forecast is General Rodolfo Sánchez Taboada International Airport, 22.7 nm (42.0 km) N. Retrieved 2019/08/18 18:03 UTC (3 minutes ago):

TAF MMML 181700Z 1818/1918 19010KT P6SM BKN200 BECMG 1903/1904 18005KT FM191700 22010KT P6SM SKC